sensor_id;sensor_type;location;lat;lon;timestamp;temperature;humidity
7684;DHT22;3884;48.616;12.872;2023-04-03T00:01:27;3.60;1.00
7684;DHT22;3884;48.616;12.872;2023-04-03T00:03:54;3.60;1.00
7684;DHT22;3884;48.616;12.872;2023-04-03T00:06:21;3.60;1.00
7684;DHT22;3884;48.616;12.872;2023-04-03T00:08:48;3.60;99.90
7684;DHT22;3884;48.616;12.872;2023-04-03T00:11:15;3.60;99.90
7684;DHT22;3884;48.616;12.872;2023-04-03T00:13:44;3.60;99.90
7684;DHT22;3884;48.616;12.872;2023-04-03T00:16:11;3.60;99.90
7684;DHT22;3884;48.616;12.872;2023-04-03T00:18:39;3.60;99.90
7684;DHT22;3884;48.616;12.872;2023-04-03T00:21:06;3.50;1.00
7684;DHT22;3884;48.616;12.872;2023-04-03T00:23:34;3.60;1.00
7684;DHT22;3884;48.616;12.872;2023-04-03T00:26:01;3.60;1.00
7684;DHT22;3884;48.616;12.872;2023-04-03T00:28:28;3.60;99.90
7684;DHT22;3884;48.616;12.872;2023-04-03T00:30:57;3.50;99.90
7684;DHT22;3884;48.616;12.872;2023-04-03T00:33:24;3.50;99.90
7684;DHT22;3884;48.616;12.872;2023-04-03T00:35:51;3.60;99.90
7684;DHT22;3884;48.616;12.872;2023-04-03T00:38:18;3.60;99.90
7684;DHT22;3884;48.616;12.872;2023-04-03T00:40:46;3.50;99.90
7684;DHT22;3884;48.616;12.872;2023-04-03T00:43:15;3.70;99.90
7684;DHT22;3884;48.616;12.872;2023-04-03T00:45:43;3.80;65.00
7684;DHT22;3884;48.616;12.872;2023-04-03T00:48:15;3.80;3.00
7684;DHT22;3884;48.616;12.872;2023-04-03T00:50:44;3.80;22.00
7684;DHT22;3884;48.616;12.872;2023-04-03T00:53:13;3.90;22.00
7684;DHT22;3884;48.616;12.872;2023-04-03T00:55:41;3.90;15.90
7684;DHT22;3884;48.616;12.872;2023-04-03T00:58:10;3.80;81.40
7684;DHT22;3884;48.616;12.872;2023-04-03T01:00:38;3.70;99.90
7684;DHT22;3884;48.616;12.872;2023-04-03T01:03:06;3.70;1.00
7684;DHT22;3884;48.616;12.872;2023-04-03T01:05:36;3.70;1.00
7684;DHT22;3884;48.616;12.872;2023-04-03T01:08:03;3.70;1.00
7684;DHT22;3884;48.616;12.872;2023-04-03T01:10:30;3.70;1.00
7684;DHT22;3884;48.616;12.872;2023-04-03T01:12:59;3.70;1.00
7684;DHT22;3884;48.616;12.872;2023-04-03T01:15:27;3.70;1.00
7684;DHT22;3884;48.616;12.872;2023-04-03T01:17:57;3.60;1.00
7684;DHT22;3884;48.616;12.872;2023-04-03T01:23:39;3.70;1.00
7684;DHT22;3884;48.616;12.872;2023-04-03T01:26:11;3.70;1.00
7684;DHT22;3884;48.616;12.872;2023-04-03T01:28:38;3.70;1.00
7684;DHT22;3884;48.616;12.872;2023-04-03T01:31:13;3.60;1.00
7684;DHT22;3884;48.616;12.872;2023-04-03T01:33:44;3.60;1.00
7684;DHT22;3884;48.616;12.872;2023-04-03T01:36:14;3.60;1.00
7684;DHT22;3884;48.616;12.872;2023-04-03T01:38:42;3.60;1.00
7684;DHT22;3884;48.616;12.872;2023-04-03T01:41:09;3.60;1.00
7684;DHT22;3884;48.616;12.872;2023-04-03T01:43:36;3.60;1.00
7684;DHT22;3884;48.616;12.872;2023-04-03T01:46:03;3.80;1.00
7684;DHT22;3884;48.616;12.872;2023-04-03T01:48:30;3.80;99.90
7684;DHT22;3884;48.616;12.872;2023-04-03T01:50:58;3.70;1.00
7684;DHT22;3884;48.616;12.872;2023-04-03T01:53:25;3.70;1.00
7684;DHT22;3884;48.616;12.872;2023-04-03T01:55:52;3.70;1.00
7684;DHT22;3884;48.616;12.872;2023-04-03T01:58:20;3.80;1.00
7684;DHT22;3884;48.616;12.872;2023-04-03T02:00:48;3.80;1.00
7684;DHT22;3884;48.616;12.872;2023-04-03T02:03:15;3.80;1.00
7684;DHT22;3884;48.616;12.872;2023-04-03T02:05:42;3.70;1.00
7684;DHT22;3884;48.616;12.872;2023-04-03T02:08:11;3.70;1.00
7684;DHT22;3884;48.616;12.872;2023-04-03T02:10:38;3.70;1.00
7684;DHT22;3884;48.616;12.872;2023-04-03T02:13:05;3.60;1.00
7684;DHT22;3884;48.616;12.872;2023-04-03T02:15:32;3.60;1.00
7684;DHT22;3884;48.616;12.872;2023-04-03T02:17:59;3.60;1.00
7684;DHT22;3884;48.616;12.872;2023-04-03T02:20:26;3.60;59.00
7684;DHT22;3884;48.616;12.872;2023-04-03T02:22:53;3.60;1.00
7684;DHT22;3884;48.616;12.872;2023-04-03T02:25:21;3.60;1.00
7684;DHT22;3884;48.616;12.872;2023-04-03T02:27:48;3.70;1.00
7684;DHT22;3884;48.616;12.872;2023-04-03T02:30:15;3.80;1.00
7684;DHT22;3884;48.616;12.872;2023-04-03T02:32:43;3.70;99.90
7684;DHT22;3884;48.616;12.872;2023-04-03T02:35:11;3.60;99.90
7684;DHT22;3884;48.616;12.872;2023-04-03T02:37:39;3.60;99.90
7684;DHT22;3884;48.616;12.872;2023-04-03T02:40:07;3.70;99.90
7684;DHT22;3884;48.616;12.872;2023-04-03T02:42:36;3.70;99.90
7684;DHT22;3884;48.616;12.872;2023-04-03T02:45:03;3.70;99.90
7684;DHT22;3884;48.616;12.872;2023-04-03T02:47:30;3.70;1.00
7684;DHT22;3884;48.616;12.872;2023-04-03T02:49:57;3.80;1.00
7684;DHT22;3884;48.616;12.872;2023-04-03T02:52:24;3.70;99.90
7684;DHT22;3884;48.616;12.872;2023-04-03T02:54:54;3.50;1.00
7684;DHT22;3884;48.616;12.872;2023-04-03T02:57:21;3.50;1.00
7684;DHT22;3884;48.616;12.872;2023-04-03T02:59:50;3.50;99.90
7684;DHT22;3884;48.616;12.872;2023-04-03T03:02:16;3.40;1.00
7684;DHT22;3884;48.616;12.872;2023-04-03T03:04:43;3.50;1.00
7684;DHT22;3884;48.616;12.872;2023-04-03T03:07:10;3.50;1.00
7684;DHT22;3884;48.616;12.872;2023-04-03T03:09:37;3.50;1.00
7684;DHT22;3884;48.616;12.872;2023-04-03T03:12:04;3.50;1.00
7684;DHT22;3884;48.616;12.872;2023-04-03T03:14:31;3.40;99.90
7684;DHT22;3884;48.616;12.872;2023-04-03T03:16:59;3.40;99.90
7684;DHT22;3884;48.616;12.872;2023-04-03T03:19:26;3.40;99.90
7684;DHT22;3884;48.616;12.872;2023-04-03T03:21:53;3.40;1.00
7684;DHT22;3884;48.616;12.872;2023-04-03T03:24:21;3.30;1.00
7684;DHT22;3884;48.616;12.872;2023-04-03T03:26:48;3.30;1.00
7684;DHT22;3884;48.616;12.872;2023-04-03T03:29:15;3.30;1.00
7684;DHT22;3884;48.616;12.872;2023-04-03T03:31:43;3.40;1.00
7684;DHT22;3884;48.616;12.872;2023-04-03T03:34:11;3.40;1.00
7684;DHT22;3884;48.616;12.872;2023-04-03T03:36:38;3.30;31.60
7684;DHT22;3884;48.616;12.872;2023-04-03T03:39:06;3.30;99.90
7684;DHT22;3884;48.616;12.872;2023-04-03T03:41:33;3.40;1.00
7684;DHT22;3884;48.616;12.872;2023-04-03T03:44:00;3.40;1.00
7684;DHT22;3884;48.616;12.872;2023-04-03T03:46:30;3.40;61.70
7684;DHT22;3884;48.616;12.872;2023-04-03T03:48:56;3.40;99.90
7684;DHT22;3884;48.616;12.872;2023-04-03T03:51:25;3.40;99.90
7684;DHT22;3884;48.616;12.872;2023-04-03T03:53:52;3.40;99.90
7684;DHT22;3884;48.616;12.872;2023-04-03T03:56:19;3.40;99.90
7684;DHT22;3884;48.616;12.872;2023-04-03T03:58:46;3.50;28.80
7684;DHT22;3884;48.616;12.872;2023-04-03T04:01:14;3.40;99.90
7684;DHT22;3884;48.616;12.872;2023-04-03T04:03:46;3.40;99.90
7684;DHT22;3884;48.616;12.872;2023-04-03T04:06:17;3.40;1.00
7684;DHT22;3884;48.616;12.872;2023-04-03T04:08:46;3.40;1.00
7684;DHT22;3884;48.616;12.872;2023-04-03T04:11:14;3.30;28.10
7684;DHT22;3884;48.616;12.872;2023-04-03T04:13:42;3.20;99.90
7684;DHT22;3884;48.616;12.872;2023-04-03T04:16:11;3.20;99.90
7684;DHT22;3884;48.616;12.872;2023-04-03T04:18:38;3.20;99.90
7684;DHT22;3884;48.616;12.872;2023-04-03T04:21:05;3.20;99.90
7684;DHT22;3884;48.616;12.872;2023-04-03T04:23:32;3.20;99.90
7684;DHT22;3884;48.616;12.872;2023-04-03T04:26:01;3.20;99.90
7684;DHT22;3884;48.616;12.872;2023-04-03T04:28:32;3.10;94.50
7684;DHT22;3884;48.616;12.872;2023-04-03T04:31:01;3.20;99.90
7684;DHT22;3884;48.616;12.872;2023-04-03T04:33:28;3.10;6.80
7684;DHT22;3884;48.616;12.872;2023-04-03T04:35:57;3.10;1.00
7684;DHT22;3884;48.616;12.872;2023-04-03T04:38:24;3.10;1.00
7684;DHT22;3884;48.616;12.872;2023-04-03T04:40:53;3.20;1.00
7684;DHT22;3884;48.616;12.872;2023-04-03T04:43:22;3.20;1.00
7684;DHT22;3884;48.616;12.872;2023-04-03T04:46:01;3.10;19.00
7684;DHT22;3884;48.616;12.872;2023-04-03T04:48:28;3.20;99.90
7684;DHT22;3884;48.616;12.872;2023-04-03T04:50:55;3.20;99.90
7684;DHT22;3884;48.616;12.872;2023-04-03T04:53:22;3.20;22.10
7684;DHT22;3884;48.616;12.872;2023-04-03T04:55:49;3.30;1.00
7684;DHT22;3884;48.616;12.872;2023-04-03T04:58:16;3.20;1.00
7684;DHT22;3884;48.616;12.872;2023-04-03T05:00:44;3.20;1.00
7684;DHT22;3884;48.616;12.872;2023-04-03T05:03:12;3.20;1.00
7684;DHT22;3884;48.616;12.872;2023-04-03T05:05:39;3.20;1.00
7684;DHT22;3884;48.616;12.872;2023-04-03T05:08:07;3.20;1.00
7684;DHT22;3884;48.616;12.872;2023-04-03T05:10:36;3.20;1.00
7684;DHT22;3884;48.616;12.872;2023-04-03T05:13:03;3.30;1.00
7684;DHT22;3884;48.616;12.872;2023-04-03T05:15:30;3.20;99.90
7684;DHT22;3884;48.616;12.872;2023-04-03T05:17:59;3.10;1.00
7684;DHT22;3884;48.616;12.872;2023-04-03T05:20:26;3.20;1.00
7684;DHT22;3884;48.616;12.872;2023-04-03T05:22:53;3.30;79.30
7684;DHT22;3884;48.616;12.872;2023-04-03T05:25:20;3.30;1.00
7684;DHT22;3884;48.616;12.872;2023-04-03T05:27:47;3.20;1.00
7684;DHT22;3884;48.616;12.872;2023-04-03T05:30:14;3.20;1.00
7684;DHT22;3884;48.616;12.872;2023-04-03T05:32:41;3.10;1.00
7684;DHT22;3884;48.616;12.872;2023-04-03T05:35:16;3.10;1.00
7684;DHT22;3884;48.616;12.872;2023-04-03T05:37:45;3.10;1.00
7684;DHT22;3884;48.616;12.872;2023-04-03T05:40:13;3.20;1.00
7684;DHT22;3884;48.616;12.872;2023-04-03T05:42:43;3.20;1.00
7684;DHT22;3884;48.616;12.872;2023-04-03T05:45:10;3.20;1.00
7684;DHT22;3884;48.616;12.872;2023-04-03T05:47:38;3.20;1.00
7684;DHT22;3884;48.616;12.872;2023-04-03T05:50:07;3.20;34.80
7684;DHT22;3884;48.616;12.872;2023-04-03T05:52:36;3.20;1.00
7684;DHT22;3884;48.616;12.872;2023-04-03T05:55:05;3.20;1.00
7684;DHT22;3884;48.616;12.872;2023-04-03T05:57:34;3.20;1.00
7684;DHT22;3884;48.616;12.872;2023-04-03T06:00:01;3.30;1.00
7684;DHT22;3884;48.616;12.872;2023-04-03T06:02:29;3.20;1.00
7684;DHT22;3884;48.616;12.872;2023-04-03T06:04:57;3.30;65.50
7684;DHT22;3884;48.616;12.872;2023-04-03T06:07:24;3.30;99.90
7684;DHT22;3884;48.616;12.872;2023-04-03T06:09:56;3.30;99.90
7684;DHT22;3884;48.616;12.872;2023-04-03T06:12:23;3.30;99.90
7684;DHT22;3884;48.616;12.872;2023-04-03T06:14:50;3.30;99.90
7684;DHT22;3884;48.616;12.872;2023-04-03T06:17:18;3.30;99.90
7684;DHT22;3884;48.616;12.872;2023-04-03T06:19:45;3.30;1.00
7684;DHT22;3884;48.616;12.872;2023-04-03T06:22:13;3.30;99.90
7684;DHT22;3884;48.616;12.872;2023-04-03T06:24:40;3.40;99.90
7684;DHT22;3884;48.616;12.872;2023-04-03T06:27:10;3.40;10.60
7684;DHT22;3884;48.616;12.872;2023-04-03T06:29:37;3.40;1.00
7684;DHT22;3884;48.616;12.872;2023-04-03T06:32:04;3.40;1.00
7684;DHT22;3884;48.616;12.872;2023-04-03T06:34:31;3.40;1.00
7684;DHT22;3884;48.616;12.872;2023-04-03T06:36:58;3.40;1.00
7684;DHT22;3884;48.616;12.872;2023-04-03T06:39:25;3.40;1.00
7684;DHT22;3884;48.616;12.872;2023-04-03T06:41:52;3.40;1.00
7684;DHT22;3884;48.616;12.872;2023-04-03T06:44:29;3.40;1.00
7684;DHT22;3884;48.616;12.872;2023-04-03T06:46:56;3.50;99.90
7684;DHT22;3884;48.616;12.872;2023-04-03T06:49:23;3.60;99.90
7684;DHT22;3884;48.616;12.872;2023-04-03T06:51:50;3.70;99.90
7684;DHT22;3884;48.616;12.872;2023-04-03T06:54:17;3.80;99.90
7684;DHT22;3884;48.616;12.872;2023-04-03T06:56:44;3.90;56.40
7684;DHT22;3884;48.616;12.872;2023-04-03T06:59:12;3.90;1.00
7684;DHT22;3884;48.616;12.872;2023-04-03T07:01:42;4.00;1.00
7684;DHT22;3884;48.616;12.872;2023-04-03T07:04:09;4.10;1.00
7684;DHT22;3884;48.616;12.872;2023-04-03T07:06:36;4.10;1.00
7684;DHT22;3884;48.616;12.872;2023-04-03T07:09:03;4.10;99.90
7684;DHT22;3884;48.616;12.872;2023-04-03T07:11:29;4.10;99.90
7684;DHT22;3884;48.616;12.872;2023-04-03T07:13:57;4.10;99.90
7684;DHT22;3884;48.616;12.872;2023-04-03T07:16:24;4.00;99.90
7684;DHT22;3884;48.616;12.872;2023-04-03T07:18:52;3.90;99.90
7684;DHT22;3884;48.616;12.872;2023-04-03T07:21:19;3.80;68.90
7684;DHT22;3884;48.616;12.872;2023-04-03T07:23:46;3.70;47.80
7684;DHT22;3884;48.616;12.872;2023-04-03T07:26:13;3.90;99.90
7684;DHT22;3884;48.616;12.872;2023-04-03T07:28:40;4.00;1.00
7684;DHT22;3884;48.616;12.872;2023-04-03T07:31:11;4.00;15.30
7684;DHT22;3884;48.616;12.872;2023-04-03T07:33:39;4.00;38.50
7684;DHT22;3884;48.616;12.872;2023-04-03T07:36:09;4.10;1.00
7684;DHT22;3884;48.616;12.872;2023-04-03T07:38:37;4.10;1.00
7684;DHT22;3884;48.616;12.872;2023-04-03T07:41:04;4.00;1.00
7684;DHT22;3884;48.616;12.872;2023-04-03T07:43:32;4.00;1.00
7684;DHT22;3884;48.616;12.872;2023-04-03T07:45:59;4.00;1.00
7684;DHT22;3884;48.616;12.872;2023-04-03T07:48:26;4.10;1.00
7684;DHT22;3884;48.616;12.872;2023-04-03T07:50:53;4.00;99.90
7684;DHT22;3884;48.616;12.872;2023-04-03T07:53:22;4.00;99.90
7684;DHT22;3884;48.616;12.872;2023-04-03T07:55:49;4.10;99.90
7684;DHT22;3884;48.616;12.872;2023-04-03T07:58:21;4.00;99.90
7684;DHT22;3884;48.616;12.872;2023-04-03T08:00:48;4.00;99.90
7684;DHT22;3884;48.616;12.872;2023-04-03T08:03:16;4.10;99.90
7684;DHT22;3884;48.616;12.872;2023-04-03T08:05:44;4.10;99.90
7684;DHT22;3884;48.616;12.872;2023-04-03T08:08:13;4.20;99.90
7684;DHT22;3884;48.616;12.872;2023-04-03T08:10:42;4.30;99.90
7684;DHT22;3884;48.616;12.872;2023-04-03T08:13:09;4.30;99.90
7684;DHT22;3884;48.616;12.872;2023-04-03T08:15:37;4.30;99.90
7684;DHT22;3884;48.616;12.872;2023-04-03T08:18:04;4.40;1.00
7684;DHT22;3884;48.616;12.872;2023-04-03T08:20:31;4.40;11.70
7684;DHT22;3884;48.616;12.872;2023-04-03T08:22:59;4.40;1.00
7684;DHT22;3884;48.616;12.872;2023-04-03T08:25:26;4.40;1.00
7684;DHT22;3884;48.616;12.872;2023-04-03T08:27:56;4.50;1.00
7684;DHT22;3884;48.616;12.872;2023-04-03T08:30:24;4.60;1.00
7684;DHT22;3884;48.616;12.872;2023-04-03T08:32:51;4.70;1.00
7684;DHT22;3884;48.616;12.872;2023-04-03T08:35:19;4.80;1.00
7684;DHT22;3884;48.616;12.872;2023-04-03T08:37:47;5.00;1.00
7684;DHT22;3884;48.616;12.872;2023-04-03T08:40:16;5.10;1.00
7684;DHT22;3884;48.616;12.872;2023-04-03T08:42:54;5.10;1.00
7684;DHT22;3884;48.616;12.872;2023-04-03T08:45:37;5.30;1.00
7684;DHT22;3884;48.616;12.872;2023-04-03T08:48:13;5.20;1.00
7684;DHT22;3884;48.616;12.872;2023-04-03T08:50:45;4.90;1.00
7684;DHT22;3884;48.616;12.872;2023-04-03T08:53:16;4.90;1.00
7684;DHT22;3884;48.616;12.872;2023-04-03T08:55:45;4.80;1.00
7684;DHT22;3884;48.616;12.872;2023-04-03T08:58:16;4.70;1.00
7684;DHT22;3884;48.616;12.872;2023-04-03T09:00:47;4.70;1.00
7684;DHT22;3884;48.616;12.872;2023-04-03T09:03:17;4.80;1.00
7684;DHT22;3884;48.616;12.872;2023-04-03T09:05:48;4.80;99.90
7684;DHT22;3884;48.616;12.872;2023-04-03T09:08:28;4.70;99.90
7684;DHT22;3884;48.616;12.872;2023-04-03T09:11:06;4.70;99.90
7684;DHT22;3884;48.616;12.872;2023-04-03T09:13:40;4.60;99.90
7684;DHT22;3884;48.616;12.872;2023-04-03T09:16:25;4.60;99.90
7684;DHT22;3884;48.616;12.872;2023-04-03T09:18:59;4.60;99.90
7684;DHT22;3884;48.616;12.872;2023-04-03T09:21:34;4.60;99.90
7684;DHT22;3884;48.616;12.872;2023-04-03T09:24:06;4.60;99.90
7684;DHT22;3884;48.616;12.872;2023-04-03T09:26:36;4.60;99.90
7684;DHT22;3884;48.616;12.872;2023-04-03T09:29:07;4.70;99.90
7684;DHT22;3884;48.616;12.872;2023-04-03T09:31:39;4.80;99.90
7684;DHT22;3884;48.616;12.872;2023-04-03T09:34:11;5.00;99.90
7684;DHT22;3884;48.616;12.872;2023-04-03T09:36:45;5.30;99.90
7684;DHT22;3884;48.616;12.872;2023-04-03T09:39:14;5.60;99.90
7684;DHT22;3884;48.616;12.872;2023-04-03T09:41:42;5.60;99.90
7684;DHT22;3884;48.616;12.872;2023-04-03T09:44:23;5.90;99.90
7684;DHT22;3884;48.616;12.872;2023-04-03T09:46:52;6.10;99.90
7684;DHT22;3884;48.616;12.872;2023-04-03T09:49:21;6.20;99.90
7684;DHT22;3884;48.616;12.872;2023-04-03T09:51:47;6.00;99.90
7684;DHT22;3884;48.616;12.872;2023-04-03T09:54:30;6.20;99.90
7684;DHT22;3884;48.616;12.872;2023-04-03T09:57:01;6.20;99.90
7684;DHT22;3884;48.616;12.872;2023-04-03T09:59:31;6.10;99.90
7684;DHT22;3884;48.616;12.872;2023-04-03T10:02:02;6.00;99.90
7684;DHT22;3884;48.616;12.872;2023-04-03T10:04:38;6.00;99.90
7684;DHT22;3884;48.616;12.872;2023-04-03T10:07:26;6.00;99.90
7684;DHT22;3884;48.616;12.872;2023-04-03T10:09:55;5.80;99.90
7684;DHT22;3884;48.616;12.872;2023-04-03T10:12:22;6.10;99.90
7684;DHT22;3884;48.616;12.872;2023-04-03T10:14:55;6.50;99.90
7684;DHT22;3884;48.616;12.872;2023-04-03T10:17:30;6.60;99.90
7684;DHT22;3884;48.616;12.872;2023-04-03T10:20:05;6.80;99.90
7684;DHT22;3884;48.616;12.872;2023-04-03T10:22:39;6.00;99.90
7684;DHT22;3884;48.616;12.872;2023-04-03T10:25:15;5.90;99.90
7684;DHT22;3884;48.616;12.872;2023-04-03T10:27:49;5.90;99.90
7684;DHT22;3884;48.616;12.872;2023-04-03T10:30:28;6.00;99.90
7684;DHT22;3884;48.616;12.872;2023-04-03T10:33:09;6.10;99.90
7684;DHT22;3884;48.616;12.872;2023-04-03T10:35:44;6.00;99.90
7684;DHT22;3884;48.616;12.872;2023-04-03T10:38:19;5.50;99.90
7684;DHT22;3884;48.616;12.872;2023-04-03T10:40:52;5.90;99.90
7684;DHT22;3884;48.616;12.872;2023-04-03T10:43:28;5.90;99.90
7684;DHT22;3884;48.616;12.872;2023-04-03T10:46:00;6.00;99.90
7684;DHT22;3884;48.616;12.872;2023-04-03T10:48:43;5.80;99.90
7684;DHT22;3884;48.616;12.872;2023-04-03T10:51:24;5.50;99.90
7684;DHT22;3884;48.616;12.872;2023-04-03T10:53:56;5.70;99.90
7684;DHT22;3884;48.616;12.872;2023-04-03T10:56:32;6.00;99.90
7684;DHT22;3884;48.616;12.872;2023-04-03T10:59:18;6.30;99.90
7684;DHT22;3884;48.616;12.872;2023-04-03T11:01:51;6.10;99.90
7684;DHT22;3884;48.616;12.872;2023-04-03T11:04:21;6.30;99.90
7684;DHT22;3884;48.616;12.872;2023-04-03T11:06:53;6.30;99.90
7684;DHT22;3884;48.616;12.872;2023-04-03T11:09:26;6.20;99.90
7684;DHT22;3884;48.616;12.872;2023-04-03T11:11:56;6.50;99.90
7684;DHT22;3884;48.616;12.872;2023-04-03T11:14:28;6.50;99.90
7684;DHT22;3884;48.616;12.872;2023-04-03T11:17:05;6.40;99.90
7684;DHT22;3884;48.616;12.872;2023-04-03T11:19:41;6.50;99.90
7684;DHT22;3884;48.616;12.872;2023-04-03T11:22:14;6.40;99.90
7684;DHT22;3884;48.616;12.872;2023-04-03T11:24:43;6.20;99.90
7684;DHT22;3884;48.616;12.872;2023-04-03T11:27:17;5.80;99.90
7684;DHT22;3884;48.616;12.872;2023-04-03T11:29:49;5.80;99.90
7684;DHT22;3884;48.616;12.872;2023-04-03T11:32:44;5.90;99.90
7684;DHT22;3884;48.616;12.872;2023-04-03T11:35:18;6.50;99.90
7684;DHT22;3884;48.616;12.872;2023-04-03T11:37:47;6.70;99.90
7684;DHT22;3884;48.616;12.872;2023-04-03T11:40:22;6.40;99.90
7684;DHT22;3884;48.616;12.872;2023-04-03T11:42:53;6.60;99.90
7684;DHT22;3884;48.616;12.872;2023-04-03T11:45:31;6.70;99.90
7684;DHT22;3884;48.616;12.872;2023-04-03T11:47:59;6.80;99.90
7684;DHT22;3884;48.616;12.872;2023-04-03T11:50:42;6.90;99.90
7684;DHT22;3884;48.616;12.872;2023-04-03T11:53:33;6.80;99.90
7684;DHT22;3884;48.616;12.872;2023-04-03T11:56:03;6.70;99.90
7684;DHT22;3884;48.616;12.872;2023-04-03T11:58:32;6.70;99.90
7684;DHT22;3884;48.616;12.872;2023-04-03T12:01:01;6.30;99.90
7684;DHT22;3884;48.616;12.872;2023-04-03T12:07:11;6.50;99.90
7684;DHT22;3884;48.616;12.872;2023-04-03T12:10:17;6.30;99.90
7684;DHT22;3884;48.616;12.872;2023-04-03T12:12:59;6.60;99.90
7684;DHT22;3884;48.616;12.872;2023-04-03T12:15:50;6.30;99.90
7684;DHT22;3884;48.616;12.872;2023-04-03T12:18:58;6.80;99.90
7684;DHT22;3884;48.616;12.872;2023-04-03T12:24:28;6.60;99.90
7684;DHT22;3884;48.616;12.872;2023-04-03T12:29:50;6.30;99.90
7684;DHT22;3884;48.616;12.872;2023-04-03T12:32:36;5.90;99.90
7684;DHT22;3884;48.616;12.872;2023-04-03T12:35:16;5.70;97.00
7684;DHT22;3884;48.616;12.872;2023-04-03T12:38:00;5.60;99.90
7684;DHT22;3884;48.616;12.872;2023-04-03T12:40:43;6.00;99.90
7684;DHT22;3884;48.616;12.872;2023-04-03T12:43:37;6.80;99.90
7684;DHT22;3884;48.616;12.872;2023-04-03T12:46:12;6.90;99.90
7684;DHT22;3884;48.616;12.872;2023-04-03T12:48:48;6.80;99.90
7684;DHT22;3884;48.616;12.872;2023-04-03T12:51:18;6.60;99.90
7684;DHT22;3884;48.616;12.872;2023-04-03T12:53:47;6.50;99.90
7684;DHT22;3884;48.616;12.872;2023-04-03T12:56:23;6.70;99.90
7684;DHT22;3884;48.616;12.872;2023-04-03T12:58:53;7.00;99.90
7684;DHT22;3884;48.616;12.872;2023-04-03T13:01:22;7.10;99.90
7684;DHT22;3884;48.616;12.872;2023-04-03T13:03:52;6.70;99.90
7684;DHT22;3884;48.616;12.872;2023-04-03T13:06:22;6.70;99.90
7684;DHT22;3884;48.616;12.872;2023-04-03T13:08:51;6.50;99.90
7684;DHT22;3884;48.616;12.872;2023-04-03T13:11:18;6.00;99.90
7684;DHT22;3884;48.616;12.872;2023-04-03T13:13:59;6.00;99.90
7684;DHT22;3884;48.616;12.872;2023-04-03T13:16:27;6.00;96.80
7684;DHT22;3884;48.616;12.872;2023-04-03T13:18:54;5.70;99.90
7684;DHT22;3884;48.616;12.872;2023-04-03T13:21:23;5.70;97.30
7684;DHT22;3884;48.616;12.872;2023-04-03T13:23:54;6.20;99.90
7684;DHT22;3884;48.616;12.872;2023-04-03T13:26:24;6.60;99.90
7684;DHT22;3884;48.616;12.872;2023-04-03T13:28:52;6.60;95.60
7684;DHT22;3884;48.616;12.872;2023-04-03T13:31:23;6.30;99.90
7684;DHT22;3884;48.616;12.872;2023-04-03T13:33:56;6.20;99.90
7684;DHT22;3884;48.616;12.872;2023-04-03T13:36:26;6.20;99.90
7684;DHT22;3884;48.616;12.872;2023-04-03T13:39:04;6.40;92.30
7684;DHT22;3884;48.616;12.872;2023-04-03T13:41:33;6.30;94.90
7684;DHT22;3884;48.616;12.872;2023-04-03T13:44:23;6.70;99.90
7684;DHT22;3884;48.616;12.872;2023-04-03T13:46:54;7.40;99.80
7684;DHT22;3884;48.616;12.872;2023-04-03T13:49:29;7.90;99.90
7684;DHT22;3884;48.616;12.872;2023-04-03T13:51:57;7.30;98.00
7684;DHT22;3884;48.616;12.872;2023-04-03T13:54:29;7.40;99.90
7684;DHT22;3884;48.616;12.872;2023-04-03T13:56:57;7.30;99.90
7684;DHT22;3884;48.616;12.872;2023-04-03T13:59:28;7.10;95.40
7684;DHT22;3884;48.616;12.872;2023-04-03T14:02:15;6.90;98.50
7684;DHT22;3884;48.616;12.872;2023-04-03T14:04:50;6.70;97.40
7684;DHT22;3884;48.616;12.872;2023-04-03T14:07:18;6.60;99.90
7684;DHT22;3884;48.616;12.872;2023-04-03T14:09:47;5.70;74.00
7684;DHT22;3884;48.616;12.872;2023-04-03T14:12:17;5.90;97.30
7684;DHT22;3884;48.616;12.872;2023-04-03T14:14:45;6.10;82.40
7684;DHT22;3884;48.616;12.872;2023-04-03T14:17:16;5.80;82.70
7684;DHT22;3884;48.616;12.872;2023-04-03T14:19:44;6.00;94.40
7684;DHT22;3884;48.616;12.872;2023-04-03T14:22:16;5.70;78.60
7684;DHT22;3884;48.616;12.872;2023-04-03T14:24:44;5.50;81.70
7684;DHT22;3884;48.616;12.872;2023-04-03T14:27:16;5.40;85.50
7684;DHT22;3884;48.616;12.872;2023-04-03T14:29:43;5.20;75.80
7684;DHT22;3884;48.616;12.872;2023-04-03T14:32:11;5.30;90.30
7684;DHT22;3884;48.616;12.872;2023-04-03T14:34:40;5.50;94.40
7684;DHT22;3884;48.616;12.872;2023-04-03T14:37:11;5.50;93.80
7684;DHT22;3884;48.616;12.872;2023-04-03T14:39:38;5.40;91.50
7684;DHT22;3884;48.616;12.872;2023-04-03T14:42:05;5.30;93.90
7684;DHT22;3884;48.616;12.872;2023-04-03T14:44:32;5.10;86.70
7684;DHT22;3884;48.616;12.872;2023-04-03T14:46:59;5.10;92.60
7684;DHT22;3884;48.616;12.872;2023-04-03T14:49:29;5.20;87.90
7684;DHT22;3884;48.616;12.872;2023-04-03T14:51:58;5.30;91.20
7684;DHT22;3884;48.616;12.872;2023-04-03T14:54:25;5.10;85.80
7684;DHT22;3884;48.616;12.872;2023-04-03T14:56:53;5.40;95.70
7684;DHT22;3884;48.616;12.872;2023-04-03T14:59:21;5.60;95.80
7684;DHT22;3884;48.616;12.872;2023-04-03T15:01:48;5.40;91.90
7684;DHT22;3884;48.616;12.872;2023-04-03T15:04:17;5.50;97.70
7684;DHT22;3884;48.616;12.872;2023-04-03T15:06:44;5.70;96.00
7684;DHT22;3884;48.616;12.872;2023-04-03T15:09:19;5.80;95.90
7684;DHT22;3884;48.616;12.872;2023-04-03T15:11:47;5.70;96.40
7684;DHT22;3884;48.616;12.872;2023-04-03T15:14:14;5.50;95.20
7684;DHT22;3884;48.616;12.872;2023-04-03T15:16:41;6.10;99.10
7684;DHT22;3884;48.616;12.872;2023-04-03T15:19:08;6.10;76.60
7684;DHT22;3884;48.616;12.872;2023-04-03T15:21:35;5.90;93.20
7684;DHT22;3884;48.616;12.872;2023-04-03T15:24:02;5.90;92.10
7684;DHT22;3884;48.616;12.872;2023-04-03T15:26:31;6.30;95.20
7684;DHT22;3884;48.616;12.872;2023-04-03T15:28:58;6.40;90.70
7684;DHT22;3884;48.616;12.872;2023-04-03T15:31:25;6.50;83.80
7684;DHT22;3884;48.616;12.872;2023-04-03T15:33:52;6.60;90.70
7684;DHT22;3884;48.616;12.872;2023-04-03T15:36:19;6.10;92.00
7684;DHT22;3884;48.616;12.872;2023-04-03T15:38:46;5.80;85.60
7684;DHT22;3884;48.616;12.872;2023-04-03T15:41:13;5.70;78.80
7684;DHT22;3884;48.616;12.872;2023-04-03T15:43:41;5.60;72.40
7684;DHT22;3884;48.616;12.872;2023-04-03T15:46:08;5.50;83.60
7684;DHT22;3884;48.616;12.872;2023-04-03T15:48:36;5.50;86.10
7684;DHT22;3884;48.616;12.872;2023-04-03T15:51:03;5.60;84.50
7684;DHT22;3884;48.616;12.872;2023-04-03T15:53:31;5.50;98.30
7684;DHT22;3884;48.616;12.872;2023-04-03T15:55:58;5.60;94.90
7684;DHT22;3884;48.616;12.872;2023-04-03T15:58:25;5.60;91.30
7684;DHT22;3884;48.616;12.872;2023-04-03T16:00:53;5.50;90.90
7684;DHT22;3884;48.616;12.872;2023-04-03T16:03:21;5.30;91.60
7684;DHT22;3884;48.616;12.872;2023-04-03T16:05:49;5.10;91.90
7684;DHT22;3884;48.616;12.872;2023-04-03T16:08:17;4.90;93.10
7684;DHT22;3884;48.616;12.872;2023-04-03T16:10:45;4.80;89.00
7684;DHT22;3884;48.616;12.872;2023-04-03T16:13:13;4.70;89.50
7684;DHT22;3884;48.616;12.872;2023-04-03T16:15:40;4.60;86.30
7684;DHT22;3884;48.616;12.872;2023-04-03T16:18:09;4.50;92.90
7684;DHT22;3884;48.616;12.872;2023-04-03T16:20:36;4.60;95.80
7684;DHT22;3884;48.616;12.872;2023-04-03T16:23:03;4.50;87.00
7684;DHT22;3884;48.616;12.872;2023-04-03T16:25:30;4.40;93.10
7684;DHT22;3884;48.616;12.872;2023-04-03T16:27:57;4.40;97.20
7684;DHT22;3884;48.616;12.872;2023-04-03T16:30:24;4.20;94.60
7684;DHT22;3884;48.616;12.872;2023-04-03T16:32:51;4.10;91.10
7684;DHT22;3884;48.616;12.872;2023-04-03T16:35:20;3.90;87.00
7684;DHT22;3884;48.616;12.872;2023-04-03T16:37:47;3.90;95.50